createdAt,value
2023-02-11T00:00:35.390Z,46.72
2023-02-11T00:03:03.058Z,43.10
2023-02-11T00:05:31.306Z,41.83
2023-02-11T00:07:58.839Z,38.23
2023-02-11T00:10:27.183Z,38.03
2023-02-11T00:12:54.720Z,41.03
2023-02-11T00:15:22.254Z,42.10
2023-02-11T00:17:50.230Z,46.53
2023-02-11T00:20:17.754Z,37.07
2023-02-11T00:22:46.111Z,45.33
2023-02-11T00:25:13.634Z,41.33
2023-02-11T00:27:41.185Z,43.60
2023-02-11T00:30:08.860Z,42.03
2023-02-11T00:32:36.453Z,43.20
2023-02-11T00:35:03.984Z,40.37
2023-02-11T00:37:31.527Z,40.17
2023-02-11T00:39:59.118Z,43.07
2023-02-11T00:42:26.653Z,48.70
2023-02-11T00:44:54.185Z,45.90
2023-02-11T00:47:21.763Z,39.33
2023-02-11T00:49:49.316Z,39.37
2023-02-11T00:52:16.851Z,44.10
2023-02-11T00:54:45.178Z,45.50
2023-02-11T00:57:12.710Z,36.03
2023-02-11T00:59:40.227Z,38.20
2023-02-11T01:02:07.800Z,40.70
2023-02-11T01:04:36.107Z,38.50
2023-02-11T01:07:03.654Z,38.57
2023-02-11T01:09:31.229Z,38.03
2023-02-11T01:11:58.789Z,42.63
2023-02-11T01:14:26.325Z,40.50
2023-02-11T01:16:54.661Z,40.53
2023-02-11T01:19:22.208Z,39.80
2023-02-11T01:21:49.754Z,42.38
2023-02-11T01:24:17.304Z,44.90
2023-02-11T01:26:44.850Z,43.33
2023-02-11T01:29:12.394Z,39.70
2023-02-11T01:31:39.978Z,38.07
2023-02-11T01:34:08.254Z,37.13
2023-02-11T01:36:35.796Z,35.90
2023-02-11T01:39:04.110Z,38.57
2023-02-11T01:41:31.646Z,48.57
2023-02-11T01:43:59.170Z,38.10
2023-02-11T01:46:33.584Z,43.47
2023-02-11T01:49:07.308Z,39.30
2023-02-11T01:51:37.470Z,40.40
2023-02-11T01:54:22.937Z,40.10
2023-02-11T01:57:08.771Z,39.60
2023-02-11T01:59:41.999Z,35.40
2023-02-11T02:02:09.574Z,41.03
2023-02-11T02:04:40.514Z,38.67
2023-02-11T02:07:10.559Z,38.50
2023-02-11T02:09:41.072Z,37.70
2023-02-11T02:12:08.603Z,34.87
2023-02-11T02:14:39.782Z,39.87
2023-02-11T02:17:07.300Z,38.90
2023-02-11T02:19:46.434Z,43.10
2023-02-11T02:22:32.373Z,38.10
2023-02-11T02:25:08.450Z,37.20
2023-02-11T02:27:54.015Z,40.63
2023-02-11T02:30:43.024Z,40.20
2023-02-11T02:33:23.888Z,43.00
2023-02-11T02:36:02.147Z,44.23
2023-02-11T02:38:32.308Z,39.30
2023-02-11T02:41:18.723Z,39.40
2023-02-11T02:43:46.258Z,40.27
2023-02-11T02:46:26.413Z,37.37
2023-02-11T02:48:54.607Z,38.83
2023-02-11T02:51:59.238Z,37.50
2023-02-11T02:54:29.230Z,39.57
2023-02-11T02:57:19.318Z,35.07
2023-02-11T03:00:05.702Z,39.17
2023-02-11T03:02:45.201Z,40.30
2023-02-11T03:05:12.754Z,39.60
2023-02-11T03:07:51.949Z,42.80
2023-02-11T03:10:28.445Z,36.10
2023-02-11T03:12:56.074Z,41.17
2023-02-11T03:15:23.533Z,43.43
2023-02-11T03:17:51.858Z,42.30
2023-02-11T03:20:19.430Z,43.73
2023-02-11T03:22:46.954Z,43.27
2023-02-11T03:25:14.498Z,42.67
2023-02-11T03:27:51.992Z,42.23
2023-02-11T03:30:22.960Z,41.53
2023-02-11T03:32:53.122Z,43.50
2023-02-11T03:35:25.829Z,39.03
2023-02-11T03:38:02.592Z,41.60
2023-02-11T03:40:30.135Z,41.03
2023-02-11T03:43:00.866Z,44.27
2023-02-11T03:45:28.461Z,43.60
2023-02-11T03:47:55.951Z,38.87
2023-02-11T03:50:23.480Z,38.27
2023-02-11T03:52:51.015Z,38.30
2023-02-11T03:55:18.582Z,38.50
2023-02-11T03:57:46.126Z,42.87
2023-02-11T04:00:13.675Z,42.70
2023-02-11T04:02:41.255Z,37.63
2023-02-11T04:05:08.787Z,40.83
2023-02-11T04:07:36.321Z,38.90
2023-02-11T04:10:03.886Z,34.60
2023-02-11T04:12:31.411Z,33.37
2023-02-11T04:14:58.971Z,43.50
2023-02-11T04:17:26.540Z,38.40
2023-02-11T04:19:54.073Z,41.43
2023-02-11T04:22:22.456Z,41.73
2023-02-11T04:24:50.768Z,40.57
2023-02-11T04:27:18.337Z,43.67
2023-02-11T04:29:45.857Z,42.17
2023-02-11T04:32:14.186Z,38.53
2023-02-11T04:34:41.729Z,44.60
2023-02-11T04:37:09.243Z,46.30
2023-02-11T04:39:37.566Z,36.10
2023-02-11T04:42:05.095Z,35.33
2023-02-11T04:44:32.624Z,39.27
2023-02-11T04:47:00.197Z,35.00
2023-02-11T04:49:28.489Z,41.42
2023-02-11T04:51:56.033Z,44.13
2023-02-11T04:54:24.348Z,43.73
2023-02-11T04:56:51.864Z,35.90
2023-02-11T04:59:20.185Z,38.27
2023-02-11T05:01:48.055Z,39.77
2023-02-11T05:04:15.629Z,38.50
2023-02-11T05:06:43.106Z,35.30
2023-02-11T05:09:13.219Z,37.33
2023-02-11T05:11:40.760Z,40.85
2023-02-11T05:14:08.266Z,40.43
2023-02-11T05:16:36.745Z,37.40
2023-02-11T05:19:04.212Z,34.70
2023-02-11T05:21:31.737Z,35.73
2023-02-11T05:24:00.276Z,34.93
2023-02-11T05:26:27.814Z,38.60
2023-02-11T05:28:56.104Z,37.40
2023-02-11T05:31:23.690Z,38.03
2023-02-11T05:33:51.174Z,32.20
2023-02-11T05:36:18.699Z,35.50
2023-02-11T05:38:46.301Z,35.47
2023-02-11T05:41:13.823Z,36.10
2023-02-11T05:43:41.363Z,42.30
2023-02-11T05:46:09.314Z,40.10
2023-02-11T05:48:36.746Z,40.20
2023-02-11T05:51:05.111Z,42.17
2023-02-11T05:53:33.030Z,36.37
2023-02-11T05:56:00.574Z,45.17
2023-02-11T05:58:28.106Z,41.40
2023-02-11T06:00:56.464Z,43.37
2023-02-11T06:03:24.035Z,40.97
2023-02-11T06:05:51.900Z,38.87
2023-02-11T06:08:19.408Z,37.73
2023-02-11T06:10:46.934Z,40.27
2023-02-11T06:13:15.255Z,38.97
2023-02-11T06:15:42.902Z,37.37
2023-02-11T06:18:10.366Z,38.43
2023-02-11T06:20:37.887Z,39.13
2023-02-11T06:23:06.246Z,41.83
2023-02-11T06:25:33.755Z,42.10
2023-02-11T06:28:01.339Z,39.27
2023-02-11T06:30:29.659Z,37.67
2023-02-11T06:32:57.242Z,38.43
2023-02-11T06:35:24.711Z,41.80
2023-02-11T06:37:52.288Z,41.40
2023-02-11T06:40:19.820Z,42.37
2023-02-11T06:42:47.458Z,41.10
2023-02-11T06:45:14.981Z,40.20
2023-02-11T06:47:42.535Z,43.00
2023-02-11T06:50:10.050Z,41.20
2023-02-11T06:52:38.430Z,40.97
2023-02-11T06:55:05.965Z,43.47
2023-02-11T06:57:34.249Z,46.03
2023-02-11T07:00:02.657Z,40.80
2023-02-11T07:02:30.165Z,42.60
2023-02-11T07:04:57.665Z,41.83
2023-02-11T07:07:25.309Z,46.50
2023-02-11T07:09:52.797Z,45.53
2023-02-11T07:12:20.345Z,44.53
2023-02-11T07:14:47.926Z,44.40
2023-02-11T07:17:15.471Z,50.72
2023-02-11T07:19:43.011Z,49.30
2023-02-11T07:22:11.359Z,45.13
2023-02-11T07:24:38.892Z,40.57
2023-02-11T07:27:06.418Z,55.00
2023-02-11T07:29:34.002Z,53.13
2023-02-11T07:32:01.673Z,51.67
2023-02-11T07:34:29.117Z,61.63
2023-02-11T07:36:57.426Z,58.83
2023-02-11T07:39:25.010Z,53.57
2023-02-11T07:41:53.301Z,54.33
2023-02-11T07:44:20.867Z,46.47
2023-02-11T07:46:48.468Z,47.07
2023-02-11T07:49:16.769Z,41.87
2023-02-11T07:51:44.342Z,42.13
2023-02-11T07:54:12.668Z,44.77
2023-02-11T07:56:40.185Z,43.83
2023-02-11T07:59:07.766Z,41.17
2023-02-11T08:01:35.289Z,43.83
2023-02-11T08:04:03.624Z,43.20
2023-02-11T08:06:31.205Z,42.07
2023-02-11T08:08:58.760Z,42.27
2023-02-11T08:11:26.282Z,47.15
2023-02-11T08:13:53.913Z,40.73
2023-02-11T08:16:30.141Z,42.83
2023-02-11T08:18:57.983Z,43.53
2023-02-11T08:21:25.537Z,41.37
2023-02-11T08:23:53.072Z,41.47
2023-02-11T08:26:21.407Z,43.60
2023-02-11T08:28:48.937Z,44.57
2023-02-11T08:31:22.320Z,52.95
2023-02-11T08:33:49.738Z,51.80
2023-02-11T08:36:18.049Z,48.30
2023-02-11T08:38:45.587Z,45.80
2023-02-11T08:41:13.218Z,43.67
2023-02-11T08:43:41.533Z,44.60
2023-02-11T08:46:09.155Z,43.37
2023-02-11T08:48:37.398Z,39.60
2023-02-11T08:51:07.679Z,44.93
2023-02-11T08:53:35.209Z,51.00
2023-02-11T08:56:02.790Z,49.47
2023-02-11T08:58:31.105Z,50.53
2023-02-11T09:00:58.638Z,54.63
2023-02-11T09:03:26.966Z,48.30
2023-02-11T09:05:54.468Z,52.83
2023-02-11T09:08:22.008Z,50.97
2023-02-11T09:10:50.639Z,52.80
2023-02-11T09:13:17.909Z,55.93
2023-02-11T09:15:45.431Z,47.53
2023-02-11T09:18:13.023Z,48.63
2023-02-11T09:20:40.557Z,51.17
2023-02-11T09:23:08.115Z,45.57
2023-02-11T09:25:35.689Z,50.27
2023-02-11T09:28:03.248Z,60.00
2023-02-11T09:30:31.591Z,49.00
2023-02-11T09:32:59.099Z,49.70
2023-02-11T09:35:26.634Z,63.13
2023-02-11T09:37:54.178Z,58.67
2023-02-11T09:40:21.817Z,49.47
2023-02-11T09:42:52.010Z,47.47
2023-02-11T09:45:19.540Z,50.53
2023-02-11T09:47:49.803Z,51.07
2023-02-11T09:50:20.034Z,48.17
2023-02-11T09:53:05.563Z,45.20
2023-02-11T09:55:44.900Z,45.17
2023-02-11T09:58:21.181Z,48.40
2023-02-11T10:01:13.315Z,49.97
2023-02-11T10:03:52.610Z,42.30
2023-02-11T10:06:26.114Z,52.07
2023-02-11T10:08:59.776Z,51.33
2023-02-11T10:11:45.426Z,52.90
2023-02-11T10:14:34.782Z,44.40
2023-02-11T10:17:11.369Z,45.77
2023-02-11T10:19:51.077Z,51.27
2023-02-11T10:22:18.613Z,44.70
2023-02-11T10:24:54.994Z,41.67
2023-02-11T10:27:23.302Z,42.77
2023-02-11T10:29:53.524Z,47.40
2023-02-11T10:32:36.497Z,44.30
2023-02-11T10:35:04.031Z,41.60
2023-02-11T10:37:31.557Z,44.57
2023-02-11T10:39:59.139Z,40.83
2023-02-11T10:42:26.665Z,39.87
2023-02-11T10:45:00.226Z,35.97
2023-02-11T10:47:30.560Z,39.83
2023-02-11T10:49:58.086Z,34.90
2023-02-11T10:52:25.643Z,38.63
2023-02-11T10:55:10.975Z,39.77
2023-02-11T10:57:38.508Z,37.13
2023-02-11T11:00:15.592Z,38.83
2023-02-11T11:02:43.941Z,36.77
2023-02-11T11:05:17.771Z,31.60
2023-02-11T11:07:54.561Z,30.50
2023-02-11T11:10:29.069Z,30.73
2023-02-11T11:12:56.602Z,30.40
2023-02-11T11:15:24.170Z,31.57
2023-02-11T11:17:51.731Z,28.97
2023-02-11T11:20:25.029Z,29.90
2023-02-11T11:22:52.868Z,26.85
2023-02-11T11:25:29.202Z,25.60
2023-02-11T11:27:56.747Z,24.53
2023-02-11T11:30:24.311Z,24.40
2023-02-11T11:32:52.625Z,23.47
2023-02-11T11:35:28.822Z,23.50
2023-02-11T11:37:56.405Z,25.97
2023-02-11T11:40:27.554Z,25.63
2023-02-11T11:43:04.164Z,24.47
2023-02-11T11:45:31.701Z,25.67
2023-02-11T11:48:14.251Z,25.30
2023-02-11T11:50:47.352Z,23.87
2023-02-11T11:53:14.748Z,29.17
2023-02-11T11:55:48.223Z,20.57
2023-02-11T11:58:16.526Z,21.43
2023-02-11T12:00:52.780Z,23.77
2023-02-11T12:03:48.399Z,24.33
2023-02-11T12:06:40.166Z,20.40
2023-02-11T12:09:10.506Z,19.93
2023-02-11T12:11:53.135Z,20.50
2023-02-11T12:14:21.491Z,22.33
2023-02-11T12:16:55.148Z,19.73
2023-02-11T12:19:59.912Z,20.75
2023-02-11T12:22:27.444Z,23.63
2023-02-11T12:25:25.630Z,22.20
2023-02-11T12:28:08.056Z,24.93
2023-02-11T12:30:44.755Z,22.73
2023-02-11T12:33:45.806Z,19.07
2023-02-11T12:36:29.479Z,22.05
2023-02-11T12:39:14.603Z,25.20
2023-02-11T12:42:03.155Z,22.50
2023-02-11T12:44:36.618Z,21.95
2023-02-11T12:47:10.338Z,23.07
2023-02-11T12:49:52.699Z,21.77
2023-02-11T12:52:26.830Z,20.37
2023-02-11T12:54:54.379Z,24.13
2023-02-11T12:57:27.827Z,23.17
2023-02-11T13:00:04.357Z,21.10
2023-02-11T13:02:49.888Z,22.15
2023-02-11T13:05:32.734Z,18.47
2023-02-11T13:08:06.263Z,19.33
2023-02-11T13:10:37.054Z,18.07
2023-02-11T13:13:16.466Z,19.13
2023-02-11T13:15:46.713Z,18.50
2023-02-11T13:18:30.049Z,22.10
2023-02-11T13:21:01.179Z,20.23
2023-02-11T13:23:53.152Z,21.30
2023-02-11T13:26:30.610Z,19.40
2023-02-11T13:29:10.892Z,20.10
2023-02-11T13:31:38.554Z,17.83
2023-02-11T13:34:05.989Z,18.70
2023-02-11T13:36:34.278Z,17.07
2023-02-11T13:39:07.790Z,19.00
2023-02-11T13:41:35.312Z,17.40
2023-02-11T13:44:11.587Z,20.93
2023-02-11T13:46:53.881Z,16.33
2023-02-11T13:49:21.407Z,17.93
2023-02-11T13:51:48.944Z,19.23
2023-02-11T13:54:19.507Z,18.03
2023-02-11T13:56:47.034Z,15.87
2023-02-11T13:59:26.896Z,16.57
2023-02-11T14:02:12.671Z,15.27
2023-02-11T14:05:19.850Z,17.10
2023-02-11T14:08:27.420Z,18.00
2023-02-11T14:10:55.003Z,17.67
2023-02-11T14:13:34.139Z,17.33
2023-02-11T14:16:20.496Z,19.90
2023-02-11T14:18:45.057Z,16.40
2023-02-11T14:21:18.001Z,18.80
2023-02-11T14:23:45.588Z,17.50
2023-02-11T14:26:13.132Z,19.23
2023-02-11T14:28:40.682Z,18.50
2023-02-11T14:31:11.110Z,26.13
2023-02-11T14:33:44.294Z,28.33
2023-02-11T14:36:20.758Z,40.50
2023-02-11T14:39:15.663Z,23.07
2023-02-11T14:41:43.247Z,24.30
2023-02-11T14:44:13.740Z,25.77
2023-02-11T14:46:41.314Z,21.83
2023-02-11T14:49:08.827Z,18.77
2023-02-11T14:51:36.385Z,23.03
2023-02-11T14:54:19.363Z,20.23
2023-02-11T14:56:46.959Z,19.30
2023-02-11T14:59:17.121Z,21.70
2023-02-11T15:01:44.765Z,25.30
2023-02-11T15:04:27.600Z,20.57
2023-02-11T15:06:55.183Z,22.23
2023-02-11T15:09:25.155Z,23.43
2023-02-11T15:11:52.704Z,18.13
2023-02-11T15:14:20.278Z,18.97
2023-02-11T15:16:48.591Z,16.63
2023-02-11T15:19:18.780Z,17.63
2023-02-11T15:21:47.128Z,18.47
2023-02-11T15:24:29.651Z,18.93
2023-02-11T15:27:02.804Z,19.83
2023-02-11T15:29:36.498Z,16.57
2023-02-11T15:32:10.183Z,17.17
2023-02-11T15:34:37.604Z,17.43
2023-02-11T15:37:05.085Z,17.17
2023-02-11T15:39:38.711Z,16.70
2023-02-11T15:42:18.293Z,15.70
2023-02-11T15:44:45.872Z,16.70
2023-02-11T15:47:14.167Z,17.30
2023-02-11T15:49:41.702Z,20.00
2023-02-11T15:52:10.036Z,15.97
2023-02-11T15:54:37.600Z,15.13
2023-02-11T15:57:05.100Z,20.90
2023-02-11T15:59:35.366Z,30.33
2023-02-11T16:02:08.640Z,17.63
2023-02-11T16:04:36.150Z,16.00
2023-02-11T16:07:03.694Z,15.20
2023-02-11T16:09:31.234Z,14.80
2023-02-11T16:11:58.778Z,12.70
2023-02-11T16:14:30.049Z,16.33
2023-02-11T16:17:03.280Z,17.40
2023-02-11T16:19:31.575Z,16.67
2023-02-11T16:21:59.917Z,17.80
2023-02-11T16:24:27.472Z,17.57
2023-02-11T16:26:54.979Z,18.10
2023-02-11T16:29:25.765Z,18.37
2023-02-11T16:31:53.318Z,15.47
2023-02-11T16:34:23.998Z,18.65
2023-02-11T16:36:51.564Z,19.57
2023-02-11T16:39:19.837Z,20.05
2023-02-11T16:41:47.380Z,16.30
2023-02-11T16:44:15.713Z,17.10
2023-02-11T16:46:43.271Z,18.00
2023-02-11T16:49:16.487Z,18.77
2023-02-11T16:51:44.070Z,21.33
2023-02-11T16:54:15.053Z,21.10
2023-02-11T16:56:42.622Z,19.23
2023-02-11T16:59:10.170Z,19.37
2023-02-11T17:01:37.712Z,17.57
2023-02-11T17:04:05.262Z,20.30
2023-02-11T17:06:33.576Z,18.17
2023-02-11T17:09:01.112Z,18.33
2023-02-11T17:11:28.635Z,18.30
2023-02-11T17:13:57.562Z,18.57
2023-02-11T17:16:25.183Z,22.93
2023-02-11T17:18:52.639Z,21.30
2023-02-11T17:21:20.210Z,18.93
2023-02-11T17:23:47.747Z,21.80
2023-02-11T17:26:15.281Z,23.50
2023-02-11T17:28:42.844Z,22.07
2023-02-11T17:31:10.454Z,21.00
2023-02-11T17:33:37.900Z,22.57
2023-02-11T17:36:08.510Z,24.03
2023-02-11T17:38:36.044Z,19.73
2023-02-11T17:41:03.589Z,24.20
2023-02-11T17:43:31.183Z,25.23
2023-02-11T17:45:58.787Z,28.07
2023-02-11T17:48:26.243Z,45.65
2023-02-11T17:50:53.808Z,26.27
2023-02-11T17:53:21.333Z,32.03
2023-02-11T17:55:49.917Z,29.23
2023-02-11T17:58:17.232Z,32.87
2023-02-11T18:00:44.800Z,26.47
2023-02-11T18:03:12.299Z,29.67
2023-02-11T18:05:40.640Z,24.00
2023-02-11T18:08:08.221Z,27.97
2023-02-11T18:10:35.721Z,23.93
2023-02-11T18:13:03.286Z,30.92
2023-02-11T18:15:30.809Z,25.13
2023-02-11T18:17:59.114Z,26.60
2023-02-11T18:20:26.687Z,29.13
2023-02-11T18:22:54.232Z,29.33
2023-02-11T18:25:21.764Z,28.03
2023-02-11T18:27:49.383Z,27.97
2023-02-11T18:30:19.831Z,26.13
2023-02-11T18:32:47.389Z,27.57
2023-02-11T18:35:15.648Z,24.60
2023-02-11T18:37:43.182Z,24.67
2023-02-11T18:40:10.845Z,24.77
2023-02-11T18:42:38.404Z,36.20
2023-02-11T18:45:06.012Z,31.03
2023-02-11T18:47:33.541Z,30.47
2023-02-11T18:50:01.137Z,28.77
2023-02-11T18:52:28.651Z,25.73
2023-02-11T18:54:56.186Z,26.20
2023-02-11T18:57:23.759Z,24.40
2023-02-11T18:59:51.284Z,23.57
2023-02-11T19:02:19.602Z,24.40
2023-02-11T19:04:47.232Z,23.47
2023-02-11T19:07:14.704Z,27.30
2023-02-11T19:09:42.252Z,27.58
2023-02-11T19:12:09.822Z,26.70
2023-02-11T19:14:37.348Z,25.23
2023-02-11T19:17:05.708Z,26.57
2023-02-11T19:19:33.231Z,28.00
2023-02-11T19:22:00.767Z,26.77
2023-02-11T19:24:28.293Z,26.23
2023-02-11T19:26:58.561Z,28.77
2023-02-11T19:29:26.112Z,25.23
2023-02-11T19:31:53.814Z,32.27
2023-02-11T19:34:21.227Z,26.03
2023-02-11T19:36:48.759Z,30.10
2023-02-11T19:39:17.107Z,28.13
2023-02-11T19:41:44.679Z,31.97
2023-02-11T19:44:12.224Z,33.63
2023-02-11T19:46:39.842Z,31.83
2023-02-11T19:49:07.364Z,28.77
2023-02-11T19:51:34.926Z,36.38
2023-02-11T19:54:02.434Z,33.92
2023-02-11T19:56:30.006Z,32.83
2023-02-11T19:58:57.616Z,29.80
2023-02-11T20:01:25.160Z,30.00
2023-02-11T20:03:52.689Z,30.67
2023-02-11T20:06:20.982Z,31.73
2023-02-11T20:08:48.537Z,32.80
2023-02-11T20:11:16.136Z,33.58
2023-02-11T20:13:44.505Z,32.42
2023-02-11T20:16:16.000Z,32.70
2023-02-11T20:18:43.500Z,34.70
2023-02-11T20:21:14.026Z,32.97
2023-02-11T20:23:41.549Z,32.30
2023-02-11T20:26:09.149Z,29.63
2023-02-11T20:28:36.691Z,30.70
2023-02-11T20:31:04.305Z,31.30
2023-02-11T20:33:31.798Z,29.20
2023-02-11T20:35:59.311Z,28.57
2023-02-11T20:38:26.855Z,31.63
2023-02-11T20:40:55.178Z,36.20
2023-02-11T20:43:22.723Z,33.13
2023-02-11T20:45:50.607Z,34.43
2023-02-11T20:48:18.583Z,34.27
2023-02-11T20:50:48.339Z,35.00
2023-02-11T20:53:13.673Z,40.37
2023-02-11T20:55:41.245Z,38.23
2023-02-11T20:58:08.780Z,35.00
2023-02-11T21:00:36.373Z,35.53
2023-02-11T21:03:04.715Z,32.30
2023-02-11T21:05:32.203Z,34.53
2023-02-11T21:07:59.732Z,31.97
2023-02-11T21:10:27.342Z,33.70
2023-02-11T21:12:54.855Z,30.70
2023-02-11T21:15:22.379Z,32.23
2023-02-11T21:17:50.738Z,29.87
2023-02-11T21:20:18.276Z,36.43
2023-02-11T21:22:45.811Z,32.87
2023-02-11T21:25:13.389Z,31.10
2023-02-11T21:27:40.924Z,38.07
2023-02-11T21:30:08.606Z,37.30
2023-02-11T21:32:36.211Z,32.87
2023-02-11T21:35:03.713Z,34.73
2023-02-11T21:37:31.242Z,31.43
2023-02-11T21:39:59.572Z,34.70
2023-02-11T21:42:27.099Z,32.97
2023-02-11T21:44:54.622Z,28.53
2023-02-11T21:47:22.198Z,31.03
2023-02-11T21:49:50.512Z,36.03
2023-02-11T21:52:18.036Z,37.17
2023-02-11T21:54:46.380Z,36.10
2023-02-11T21:57:13.898Z,36.10
2023-02-11T21:59:41.418Z,36.33
2023-02-11T22:02:09.770Z,42.00
2023-02-11T22:04:37.358Z,44.27
2023-02-11T22:07:04.856Z,39.83
2023-02-11T22:09:32.732Z,39.53
2023-02-11T22:12:00.255Z,44.23
2023-02-11T22:14:30.659Z,38.97
2023-02-11T22:16:56.490Z,37.00
2023-02-11T22:19:23.957Z,39.60
2023-02-11T22:21:52.278Z,39.87
2023-02-11T22:24:19.859Z,34.63
2023-02-11T22:26:47.386Z,36.30
2023-02-11T22:29:14.920Z,38.67
2023-02-11T22:31:43.309Z,37.27
2023-02-11T22:34:10.819Z,35.67
2023-02-11T22:36:38.361Z,33.77
2023-02-11T22:39:05.935Z,39.93
2023-02-11T22:41:33.461Z,50.87
2023-02-11T22:44:01.002Z,53.40
2023-02-11T22:46:28.627Z,49.37
2023-02-11T22:48:56.101Z,39.00
2023-02-11T22:51:23.625Z,42.33
2023-02-11T22:53:51.220Z,39.20
2023-02-11T22:56:18.745Z,37.77
2023-02-11T22:58:46.285Z,33.03
2023-02-11T23:01:13.904Z,36.37
2023-02-11T23:03:41.390Z,34.30
2023-02-11T23:06:08.935Z,38.92
2023-02-11T23:08:36.489Z,40.23
2023-02-11T23:11:04.032Z,39.97
2023-02-11T23:13:31.568Z,36.57
2023-02-11T23:15:59.929Z,35.60
2023-02-11T23:18:27.464Z,33.53
2023-02-11T23:20:54.989Z,34.57
2023-02-11T23:23:22.584Z,36.27
2023-02-11T23:25:50.143Z,36.73
2023-02-11T23:28:17.803Z,37.50
2023-02-11T23:30:45.260Z,45.40
2023-02-11T23:33:12.772Z,39.43
2023-02-11T23:35:41.082Z,35.57
2023-02-11T23:38:08.654Z,36.77
2023-02-11T23:40:36.185Z,35.40
2023-02-11T23:43:03.710Z,43.90
2023-02-11T23:45:32.118Z,39.93
2023-02-11T23:47:59.607Z,40.50
2023-02-11T23:50:27.143Z,48.13
2023-02-11T23:52:54.717Z,44.17
2023-02-11T23:55:22.267Z,41.67
2023-02-11T23:57:49.804Z,37.83
